Foveran, United Kingdom
Current Conditions -  °F | °C
As of 7:20 PM on Friday 21 Nov 2014 (Local Time) from EGPD Reporting Station
Scattered Clouds Scattered Clouds  
Wind Chill: 42°   Ceiling: Unl
Heat Index: 48°   Visibility: 6mi
Dew Point: 43°   Wind: 17mph
Humidity: 82%   Direction: 140°SE
Pressure: 29.97"   Gusts: NA
Location:  57.31°N, 2.04°W
Report Text: EGPD 211920Z 14015KT 9999 FEW018 SCT026 09/06 Q1015 NOSIG
Loading
Personal Weather Stations






























Interactive Weather Map New forecast layout! Learn more

10-Day Weather Forecast

Advertisements
Track Severe Weather on mobile